松山空港の過去48時間の天気

松山空港 (Matsuyama)

現在時刻: 10/18 13:03 JST (10/18 04:03 UTC) 以下の時間は現地時間です。

過去48時間のMETAR気象情報
時間 風向 風速(m/s) 視程 気温(℃) 湿度(%) 気圧(hPa) 天気現象
18 12:00 北西 3 10km以上 21 49 1014
18 11:00 2 10km以上 21 49 1015
18 10:00 西北西 2 10km以上 20 49 1015
18 09:00 南東 2 10km以上 19 46 1015
18 08:00 東南東 3 10km以上 16 59 1015
18 07:00 東南東 3 10km以上 15 59 1014
18 06:10 東南東 4 10km以上 14 67 1014
17 21:00 東南東 4 10km以上 17 55 1013
17 20:00 東南東 4 10km以上 18 52 1013
17 19:00 不定 2 10km以上 19 52 1012
17 18:00 西 3 10km以上 20 53 1012
17 17:00 北西 4 10km以上 20 43 1011
17 16:00 北北西 3 10km以上 22 38 1011
17 15:00 北北西 5 10km以上 22 33 1011
17 14:00 北北西 4 10km以上 23 38 1011
17 13:00 5 10km以上 22 46 1011
17 12:00 4 10km以上 21 46 1012
17 11:00 4 10km以上 21 49 1012
17 10:00 4 10km以上 20 56 1012
17 09:00 北北東 3 10km以上 19 52 1013
17 08:00 不定 1 10km以上 18 56 1012
17 07:00 東南東 3 10km以上 16 68 1012
17 06:10 南東 2 10km以上 16 72 1012
16 21:00 東北東 2 10km以上 20 56 1011
16 20:00 東南東 2 10km以上 20 60 1011
16 19:00 南東 2 10km以上 19 60 1010
16 18:00 北北東 2 10km以上 21 64 1010
16 17:00 北北西 2 10km以上 22 53 1011
16 16:00 3 10km以上 22 53 1010
16 15:00 4 10km以上 22 50 1010
16 14:00 4 10km以上 22 53 1011
RJOM 180300Z 32005KT 270V010 9999 FEW020 SCT/// 21/10 Q1014
RJOM 180200Z 36004KT 9999 FEW020 SCT/// 21/10 Q1015
RJOM 180100Z 29004KT 250V330 9999 FEW020 SCT050 BKN/// 20/09 Q1015
RJOM 180000Z 13003KT 100V170 9999 FEW020 SCT/// 19/07 Q1015
RJOM 172300Z 12006KT 9999 FEW025 SCT/// 16/08 Q1015
RJOM 172200Z 12006KT 9999 FEW025 BKN/// 15/07 Q1014
RJOM 172110Z 11007KT 9999 FEW025 SCT/// 14/08 Q1014 RMK 1CU025 A2995
RJOM 171200Z 12007KT 9999 FEW030 BKN/// 17/08 Q1013
RJOM 171100Z 11008KT 9999 FEW030 SCT/// 18/08 Q1013
RJOM 171000Z VRB04KT 9999 FEW030 BKN/// 19/09 Q1012
RJOM 170900Z 28005KT 9999 FEW030 SCT/// 20/10 Q1012
RJOM 170800Z 31007KT 9999 FEW030 SCT/// 20/07 Q1011
RJOM 170700Z 33006KT 9999 FEW030 BKN/// 22/07 Q1011
RJOM 170600Z 34009KT 9999 FEW030 BKN/// 22/05 Q1011
RJOM 170500Z 34008KT 9999 FEW030 BKN/// 23/08 Q1011
RJOM 170400Z 36010KT 9999 FEW025 SCT/// 22/10 Q1011
RJOM 170300Z 35008KT 9999 FEW025 BKN/// 21/09 Q1012
RJOM 170200Z 35008KT 9999 FEW020 BKN/// 21/10 Q1012
RJOM 170100Z 01007KT 9999 FEW020 BKN/// 20/11 Q1012
RJOM 170000Z 03006KT 350V060 9999 FEW020 SCT/// 19/09 Q1013
RJOM 162300Z VRB02KT 9999 FEW025 SCT/// 18/09 Q1012
RJOM 162200Z 11005KT 9999 FEW025 SCT060 16/10 Q1012
RJOM 162110Z 13004KT 9999 FEW025 SCT120 16/11 Q1012 RMK 2CU025 4AC120 A2989
RJOM 161200Z 07003KT 040V110 9999 FEW030 BKN120 20/11 Q1011
RJOM 161100Z 12003KT 9999 FEW030 SCT120 BKN180 20/12 Q1011
RJOM 161000Z 14004KT 9999 FEW030 SCT120 BKN180 19/11 Q1010
RJOM 160900Z 03004KT 9999 FEW030 BKN110 BKN/// 21/14 Q1010
RJOM 160800Z 34004KT 9999 FEW025 BKN120 BKN/// 22/12 Q1011
RJOM 160700Z 35006KT 9999 FEW025 BKN140 BKN170 22/12 Q1010
RJOM 160600Z 35007KT 9999 FEW025 BKN150 BKN/// 22/11 Q1010
RJOM 160500Z 35008KT 9999 FEW025 BKN130 BKN150 22/12 Q1011